Terminal Aerodrome Forecast
Issued by NWS

Home | Current Version | Previous Version | Graphics & Text | Print | Product List | Glossary On
Versions: 1 2 3 4 5 6 7 8 9 10 11 12 13 14 15 16 17 18 19 20 21 22 23 24 25 26
000
FTUS43 KABR 010200 AAB
TAFMBG
TAF AMD
KMBG 010216Z 0102/0124 22015KT P6SM OVC025
     FM010300 24015KT P6SM BKN025
     FM011500 30014G20KT P6SM OVC060=

USA.gov is the U.S. government's official web portal to all federal, state and local government web resources and services.